createdAt,value
2022-08-09T00:01:04.797Z,102130.19
2022-08-09T00:04:10.002Z,102130.44
2022-08-09T00:06:23.653Z,102131.59
2022-08-09T00:08:49.999Z,102137.19
2022-08-09T00:11:25.077Z,102136.19
2022-08-09T00:13:54.013Z,102137.06
2022-08-09T00:16:26.522Z,102133.44
2022-08-09T00:19:03.271Z,102133.56
2022-08-09T00:21:35.863Z,102136.19
2022-08-09T00:24:02.117Z,102132.44
2022-08-09T00:26:30.113Z,102130.69
2022-08-09T00:28:59.119Z,102132.44
2022-08-09T00:31:57.018Z,102135.91
2022-08-09T00:34:12.374Z,102134.19
2022-08-09T00:36:40.119Z,102127.84
2022-08-09T00:39:17.045Z,102129.72
2022-08-09T00:44:14.246Z,102131.59
2022-08-09T00:44:40.421Z,102129.97
2022-08-09T00:47:07.661Z,102129.22
2022-08-09T00:49:33.884Z,102131.50
2022-08-09T00:52:02.174Z,102135.38
2022-08-09T00:54:36.110Z,102134.78
2022-08-09T00:57:02.683Z,102131.03
2022-08-09T00:59:41.620Z,102127.44
2022-08-09T01:02:12.400Z,102124.56
2022-08-09T01:04:39.340Z,102124.44
2022-08-09T01:07:12.340Z,102130.63
2022-08-09T01:09:40.251Z,102126.03
2022-08-09T01:12:06.511Z,102127.88
2022-08-09T01:14:34.804Z,102127.88
2022-08-09T01:17:01.037Z,102121.56
2022-08-09T01:19:42.374Z,102122.69
2022-08-09T01:22:12.290Z,102134.53
2022-08-09T01:24:39.062Z,102130.75
2022-08-09T01:27:05.451Z,102128.03
2022-08-09T01:29:41.283Z,102128.91
2022-08-09T01:32:31.624Z,102128.03
2022-08-09T01:35:00.257Z,102124.28
2022-08-09T01:38:05.738Z,102123.44
2022-08-09T01:40:23.269Z,102123.44
2022-08-09T01:42:54.936Z,102126.31
2022-08-09T01:45:22.241Z,102129.03
2022-08-09T01:47:49.709Z,102124.56
2022-08-09T01:50:16.110Z,102134.03
2022-08-09T01:52:43.502Z,102130.66
2022-08-09T01:55:09.773Z,102130.91
2022-08-09T01:57:40.209Z,102127.44
2022-08-09T02:00:34.439Z,102123.84
2022-08-09T02:02:58.131Z,102128.44
2022-08-09T02:05:37.684Z,102131.19
2022-08-09T02:08:35.375Z,102138.53
2022-08-09T02:10:51.652Z,102136.91
2022-08-09T02:13:18.085Z,102138.31
2022-08-09T02:15:49.597Z,102134.97
2022-08-09T02:18:16.737Z,102135.34
2022-08-09T02:20:43.210Z,102132.88
2022-08-09T02:23:10.030Z,102135.75
2022-08-09T02:25:42.641Z,102143.94
2022-08-09T02:28:12.015Z,102132.16
2022-08-09T02:30:44.276Z,102135.88
2022-08-09T02:33:14.250Z,102135.88
2022-08-09T02:36:02.044Z,102140.59
2022-08-09T02:38:28.652Z,102136.25
2022-08-09T02:40:56.144Z,102135.50
2022-08-09T02:43:23.391Z,102142.84
2022-08-09T02:45:55.026Z,102142.25
2022-08-09T02:48:31.131Z,102138.63
2022-08-09T02:50:57.991Z,102131.44
2022-08-09T02:53:26.079Z,102133.44
2022-08-09T02:55:57.722Z,102147.09
2022-08-09T02:58:35.252Z,102138.16
2022-08-09T03:01:04.427Z,102146.50
2022-08-09T03:03:37.154Z,102158.41
2022-08-09T03:06:18.623Z,102145.47
2022-08-09T03:08:47.709Z,102139.88
2022-08-09T03:11:15.409Z,102147.94
2022-08-09T03:14:01.959Z,102144.22
2022-08-09T03:16:28.223Z,102142.38
2022-08-09T03:18:55.747Z,102140.50
2022-08-09T03:21:25.688Z,102142.25
2022-08-09T03:24:04.398Z,102142.13
2022-08-09T03:26:32.024Z,102136.78
2022-08-09T03:28:58.495Z,102138.63
2022-08-09T03:31:24.764Z,102149.44
2022-08-09T03:33:53.982Z,102143.13
2022-08-09T03:36:21.269Z,102152.44
2022-08-09T03:38:54.088Z,102154.31
2022-08-09T03:41:20.339Z,102153.69
2022-08-09T03:44:08.554Z,102162.78
2022-08-09T03:46:35.391Z,102162.78
2022-08-09T03:49:04.025Z,102166.50
2022-08-09T03:51:57.644Z,102169.22
2022-08-09T03:54:29.230Z,102166.34
2022-08-09T03:56:57.802Z,102171.69
2022-08-09T03:59:42.841Z,102172.69
2022-08-09T04:02:09.655Z,102178.16
2022-08-09T04:04:38.896Z,102177.28
2022-08-09T04:07:05.312Z,102174.56
2022-08-09T04:09:47.912Z,102177.44
2022-08-09T04:12:30.759Z,102172.81
2022-08-09T04:15:01.940Z,102175.53
2022-08-09T04:17:37.512Z,102184.38
2022-08-09T04:20:05.568Z,102174.31
2022-08-09T04:22:33.766Z,102182.50
2022-08-09T04:25:00.138Z,102180.53
2022-08-09T04:27:28.991Z,102182.13
2022-08-09T04:29:55.457Z,102186.47
2022-08-09T04:32:23.684Z,102186.59
2022-08-09T04:35:03.637Z,102181.97
2022-08-09T04:37:42.174Z,102192.91
2022-08-09T04:40:19.658Z,102195.66
2022-08-09T04:42:59.021Z,102195.78
2022-08-09T04:45:25.315Z,102193.94
2022-08-09T04:48:01.205Z,102193.03
2022-08-09T04:50:33.645Z,102196.66
2022-08-09T04:53:04.154Z,102203.13
2022-08-09T04:55:38.934Z,102206.72
2022-08-09T04:58:09.505Z,102203.00
2022-08-09T05:00:36.234Z,102214.78
2022-08-09T05:03:12.821Z,102219.16
2022-08-09T05:05:51.750Z,102224.34
2022-08-09T05:08:18.551Z,102219.66
2022-08-09T05:10:44.806Z,102226.84
2022-08-09T05:13:11.033Z,102214.78
2022-08-09T05:15:43.054Z,102224.59
2022-08-09T05:18:38.170Z,102227.97
2022-08-09T05:21:13.413Z,102219.63
2022-08-09T05:23:53.618Z,102225.81
2022-08-09T05:26:37.593Z,102232.78
2022-08-09T05:29:17.655Z,102222.34
2022-08-09T05:31:47.396Z,102230.53
2022-08-09T05:34:17.402Z,102236.00
2022-08-09T05:36:43.951Z,102226.66
2022-08-09T05:39:13.790Z,102233.50
2022-08-09T05:41:54.955Z,102234.00
2022-08-09T05:44:22.235Z,102235.47
2022-08-09T05:46:55.495Z,102238.94
2022-08-09T05:49:33.855Z,102237.97
2022-08-09T05:52:07.944Z,102242.91
2022-08-09T05:54:34.172Z,102242.63
2022-08-09T05:57:00.437Z,102251.47
2022-08-09T05:59:26.915Z,102252.06
2022-08-09T06:01:53.165Z,102244.59
2022-08-09T06:04:25.084Z,102244.59
2022-08-09T06:07:01.350Z,102245.19
2022-08-09T06:09:54.063Z,102251.16
2022-08-09T06:12:13.835Z,102245.28
2022-08-09T06:14:40.057Z,102249.22
2022-08-09T06:17:09.363Z,102255.91
2022-08-09T06:19:36.484Z,102246.44
2022-08-09T06:22:03.258Z,102255.25
2022-08-09T06:24:29.704Z,102250.50
2022-08-09T06:26:57.745Z,102256.59
2022-08-09T06:29:24.257Z,102266.41
2022-08-09T06:32:52.936Z,102255.94
2022-08-09T06:34:39.236Z,102263.59
2022-08-09T06:37:05.476Z,102270.97
2022-08-09T06:39:49.238Z,102277.78
2022-08-09T06:42:24.877Z,102274.75
2022-08-09T06:44:54.878Z,102276.84
2022-08-09T06:47:23.787Z,102275.16
2022-08-09T06:50:14.729Z,102275.03
2022-08-09T06:52:36.426Z,102272.47
2022-08-09T06:55:10.119Z,102282.09
2022-08-09T06:58:01.626Z,102282.16
2022-08-09T07:00:54.310Z,102287.25
2022-08-09T07:03:11.520Z,102281.91
2022-08-09T07:05:58.256Z,102278.69
2022-08-09T07:08:24.709Z,102283.31
2022-08-09T07:10:51.138Z,102283.03
2022-08-09T07:13:27.486Z,102283.91
2022-08-09T07:16:42.707Z,102293.59
2022-08-09T07:18:41.045Z,102292.28
2022-08-09T07:21:09.185Z,102299.34
2022-08-09T07:23:36.488Z,102294.34
2022-08-09T07:26:22.573Z,102301.00
2022-08-09T07:29:08.917Z,102305.22
2022-08-09T07:31:38.122Z,102309.13
2022-08-09T07:34:05.033Z,102303.22
2022-08-09T07:36:31.277Z,102298.19
2022-08-09T07:39:00.937Z,102303.28
2022-08-09T07:41:33.164Z,102307.03
2022-08-09T07:44:05.220Z,102302.25
2022-08-09T07:46:31.503Z,102306.75
2022-08-09T07:48:59.584Z,102302.72
2022-08-09T07:52:04.647Z,102307.19
2022-08-09T07:54:12.956Z,102309.22
2022-08-09T07:56:49.349Z,102305.63
2022-08-09T07:59:34.218Z,102312.28
2022-08-09T08:02:02.578Z,102314.63
2022-08-09T08:04:32.087Z,102311.00
2022-08-09T08:07:00.094Z,102313.91
2022-08-09T08:09:42.894Z,102312.59
2022-08-09T08:12:27.440Z,102311.03
2022-08-09T08:14:55.153Z,102311.88
2022-08-09T08:17:35.007Z,102311.03
2022-08-09T08:20:12.531Z,102307.41
2022-08-09T08:22:39.797Z,102313.16
2022-08-09T08:25:09.317Z,102306.38
2022-08-09T08:27:40.554Z,102309.84
2022-08-09T08:30:08.275Z,102299.97
2022-08-09T08:32:52.939Z,102305.56
2022-08-09T08:35:22.424Z,102301.34
2022-08-09T08:38:01.956Z,102301.84
2022-08-09T08:40:35.320Z,102304.88
2022-08-09T08:43:03.304Z,102305.53
2022-08-09T08:45:50.738Z,102302.56
2022-08-09T08:48:19.854Z,102294.25
2022-08-09T08:50:49.268Z,102298.59
2022-08-09T08:53:22.046Z,102307.69
2022-08-09T08:55:48.669Z,102306.13
2022-08-09T08:58:18.919Z,102309.88
2022-08-09T09:00:54.464Z,102309.75
2022-08-09T09:03:33.138Z,102308.56
2022-08-09T09:06:05.203Z,102310.72
2022-08-09T09:08:32.137Z,102310.09
2022-08-09T09:11:07.507Z,102315.84
2022-08-09T09:13:42.226Z,102313.63
2022-08-09T09:16:29.829Z,102315.69
2022-08-09T09:19:21.592Z,102310.25
2022-08-09T09:21:46.861Z,102309.66
2022-08-09T09:24:20.550Z,102311.53
2022-08-09T09:26:48.214Z,102309.38
2022-08-09T09:29:17.008Z,102307.47
2022-08-09T09:32:03.291Z,102311.13
2022-08-09T09:34:30.960Z,102318.09
2022-08-09T09:36:59.890Z,102306.03
2022-08-09T09:39:42.632Z,102306.44
2022-08-09T09:44:39.141Z,102302.72
2022-08-09T09:47:06.356Z,102295.25
2022-08-09T09:50:07.293Z,102298.63
2022-08-09T09:52:36.644Z,102297.66
2022-08-09T09:55:16.505Z,102294.56
2022-08-09T09:58:03.460Z,102291.50
2022-08-09T10:00:31.550Z,102290.47
2022-08-09T10:02:58.231Z,102287.78
2022-08-09T10:05:26.987Z,102287.28
2022-08-09T10:08:27.698Z,102286.78
2022-08-09T10:10:54.870Z,102282.06
2022-08-09T10:13:24.549Z,102284.50
2022-08-09T10:16:55.767Z,102284.84
2022-08-09T10:18:54.815Z,102285.41
2022-08-09T10:21:21.061Z,102284.56
2022-08-09T10:23:47.433Z,102279.44
2022-08-09T10:26:19.555Z,102276.53
2022-08-09T10:28:49.115Z,102273.63
2022-08-09T10:34:32.360Z,102272.31
2022-08-09T10:36:59.645Z,102266.47
2022-08-09T10:39:28.331Z,102267.53
2022-08-09T10:41:55.222Z,102268.78
2022-08-09T10:44:21.670Z,102262.41
2022-08-09T10:46:55.766Z,102263.78
2022-08-09T10:49:50.478Z,102260.19
2022-08-09T10:52:13.596Z,102274.53
2022-08-09T10:54:46.916Z,102263.66
2022-08-09T10:57:16.395Z,102268.16
2022-08-09T10:59:57.813Z,102266.72
2022-08-09T11:03:51.203Z,102262.56
2022-08-09T11:05:25.451Z,102257.03
2022-08-09T11:07:59.238Z,102262.25
2022-08-09T11:10:26.735Z,102260.72
2022-08-09T11:12:55.699Z,102262.25
2022-08-09T11:15:24.069Z,102260.91
2022-08-09T11:17:53.680Z,102261.44
2022-08-09T11:20:23.510Z,102259.53
2022-08-09T11:22:56.731Z,102264.03
2022-08-09T11:25:25.887Z,102254.19
2022-08-09T11:28:14.548Z,102254.19
2022-08-09T11:30:48.942Z,102254.38
2022-08-09T11:33:15.559Z,102245.38
2022-08-09T11:35:49.539Z,102242.59
2022-08-09T11:38:17.881Z,102247.59
2022-08-09T11:40:44.719Z,102250.19
2022-08-09T11:43:11.052Z,102254.19
2022-08-09T11:45:42.985Z,102249.69
2022-08-09T11:48:18.848Z,102253.31
2022-08-09T11:50:56.582Z,102259.19
2022-08-09T11:54:01.435Z,102251.44
2022-08-09T11:56:41.298Z,102262.13
2022-08-09T11:59:09.329Z,102248.63
2022-08-09T12:02:15.840Z,102242.41
2022-08-09T12:04:28.781Z,102232.34
2022-08-09T12:07:03.369Z,102234.50
2022-08-09T12:09:34.192Z,102243.84
2022-08-09T12:12:02.340Z,102242.28
2022-08-09T12:14:40.618Z,102241.28
2022-08-09T12:17:20.981Z,102233.19
2022-08-09T12:20:01.387Z,102237.72
2022-08-09T12:22:27.707Z,102234.31
2022-08-09T12:24:55.563Z,102229.44
2022-08-09T12:29:14.626Z,102231.38
2022-08-09T12:30:36.132Z,102232.75
2022-08-09T12:32:57.190Z,102235.56
2022-08-09T12:35:24.138Z,102237.78
2022-08-09T12:37:54.105Z,102231.19
2022-08-09T12:40:20.475Z,102226.66
2022-08-09T12:42:50.139Z,102222.63
2022-08-09T12:45:34.178Z,102222.72
2022-08-09T12:48:03.585Z,102221.84
2022-08-09T12:50:29.928Z,102228.22
2022-08-09T12:53:07.884Z,102216.53
2022-08-09T12:56:14.046Z,102221.59
2022-08-09T12:58:24.117Z,102218.28
2022-08-09T13:00:53.792Z,102215.63
2022-08-09T13:03:24.506Z,102208.03
2022-08-09T13:06:14.508Z,102205.81
2022-08-09T13:08:43.568Z,102202.50
2022-08-09T13:11:22.918Z,102198.53
2022-08-09T13:14:41.251Z,102195.75
2022-08-09T13:16:37.014Z,102199.84
2022-08-09T13:19:03.347Z,102193.94
2022-08-09T13:23:00.687Z,102195.66
2022-08-09T13:24:44.618Z,102200.13
2022-08-09T13:27:08.525Z,102201.19
2022-08-09T13:30:02.747Z,102192.34
2022-08-09T13:32:27.503Z,102197.44
2022-08-09T13:34:54.023Z,102198.81
2022-08-09T13:37:51.168Z,102189.78
2022-08-09T13:41:50.735Z,102200.69
2022-08-09T13:42:53.104Z,102203.38
2022-08-09T13:45:19.873Z,102200.19
2022-08-09T13:47:49.176Z,102192.47
2022-08-09T13:50:31.082Z,102198.25
2022-08-09T13:52:58.117Z,102192.03
2022-08-09T13:55:24.378Z,102198.81
2022-08-09T13:57:58.078Z,102200.81
2022-08-09T14:00:28.550Z,102207.97
2022-08-09T14:03:16.604Z,102200.84
2022-08-09T14:05:58.863Z,102194.53
2022-08-09T14:08:28.279Z,102188.81
2022-08-09T14:10:54.805Z,102183.03
2022-08-09T14:13:27.731Z,102170.78
2022-08-09T14:16:10.550Z,102177.47
2022-08-09T14:18:37.641Z,102173.59
2022-08-09T14:21:03.972Z,102178.28
2022-08-09T14:23:40.710Z,102171.00
2022-08-09T14:26:18.855Z,102175.66
2022-08-09T14:28:45.086Z,102176.59
2022-08-09T14:31:11.732Z,102178.50
2022-08-09T14:33:38.522Z,102178.66
2022-08-09T14:36:19.977Z,102181.25
2022-08-09T14:38:47.159Z,102178.94
2022-08-09T14:41:34.617Z,102175.53
2022-08-09T14:44:06.254Z,102181.72
2022-08-09T14:46:54.265Z,102174.50
2022-08-09T14:49:19.534Z,102176.13
2022-08-09T14:51:50.032Z,102184.25
2022-08-09T14:54:16.412Z,102178.50
2022-08-09T14:56:57.871Z,102178.94
2022-08-09T14:59:25.574Z,102179.16
2022-08-09T15:01:53.595Z,102172.78
2022-08-09T15:04:20.030Z,102171.34
2022-08-09T15:06:50.282Z,102175.47
2022-08-09T15:10:03.655Z,102178.06
2022-08-09T15:12:04.025Z,102173.91
2022-08-09T15:14:33.906Z,102170.50
2022-08-09T15:17:00.418Z,102178.00
2022-08-09T15:19:31.078Z,102173.84
2022-08-09T15:22:03.018Z,102175.06
2022-08-09T15:24:29.636Z,102175.06
2022-08-09T15:26:56.178Z,102170.59
2022-08-09T15:30:58.706Z,102175.97
2022-08-09T15:32:28.986Z,102174.38
2022-08-09T15:34:56.448Z,102181.50
2022-08-09T15:37:23.364Z,102171.91
2022-08-09T15:39:54.746Z,102167.78
2022-08-09T15:42:21.912Z,102165.25
2022-08-09T15:44:48.239Z,102164.06
2022-08-09T15:47:22.759Z,102166.44
2022-08-09T15:50:03.437Z,102171.63
2022-08-09T15:52:30.885Z,102167.16
2022-08-09T15:54:57.750Z,102167.31
2022-08-09T15:57:35.933Z,102167.16
2022-08-09T16:00:13.857Z,102160.63
2022-08-09T16:02:41.211Z,102161.50
2022-08-09T16:05:07.723Z,102167.19
2022-08-09T16:07:38.831Z,102164.38
2022-08-09T16:10:06.125Z,102163.66
2022-08-09T16:12:37.640Z,102162.94
2022-08-09T16:16:10.664Z,102157.47
2022-08-09T16:18:02.921Z,102160.63
2022-08-09T16:20:30.389Z,102157.56
2022-08-09T16:22:56.755Z,102155.59
2022-08-09T16:25:39.348Z,102155.56
2022-08-09T16:28:07.019Z,102154.03
2022-08-09T16:30:33.289Z,102157.66
2022-08-09T16:32:59.540Z,102153.00
2022-08-09T16:35:56.010Z,102157.28
2022-08-09T16:38:14.014Z,102152.81
2022-08-09T16:40:44.478Z,102152.13
2022-08-09T16:43:12.010Z,102152.13
2022-08-09T16:45:44.103Z,102149.56
2022-08-09T16:48:39.806Z,102148.34
2022-08-09T16:50:59.314Z,102145.09
2022-08-09T16:53:32.332Z,102146.16
2022-08-09T16:56:06.039Z,102152.41
2022-08-09T16:58:35.630Z,102150.22
2022-08-09T17:01:02.340Z,102152.91
2022-08-09T17:03:28.642Z,102147.16
2022-08-09T17:06:07.278Z,102156.75
2022-08-09T17:08:43.455Z,102154.44
2022-08-09T17:11:15.276Z,102159.69
2022-08-09T17:13:41.605Z,102160.06
2022-08-09T17:16:11.646Z,102152.84
2022-08-09T17:18:38.592Z,102162.38
2022-08-09T17:21:05.177Z,102160.22
2022-08-09T17:24:21.040Z,102168.69
2022-08-09T17:26:31.328Z,102164.69
2022-08-09T17:28:57.970Z,102164.50
2022-08-09T17:31:25.407Z,102173.63
2022-08-09T17:33:56.324Z,102168.28
2022-08-09T17:36:25.969Z,102185.47
2022-08-09T17:38:52.734Z,102184.72
2022-08-09T17:41:38.828Z,102179.78
2022-08-09T17:44:38.037Z,102175.22
2022-08-09T17:46:55.651Z,102178.59
2022-08-09T17:49:23.884Z,102179.50
2022-08-09T17:51:50.145Z,102183.31
2022-08-09T17:54:16.385Z,102186.25
2022-08-09T17:56:43.465Z,102185.44
2022-08-09T17:59:11.718Z,102184.94
2022-08-09T18:02:07.693Z,102185.72
2022-08-09T18:04:28.344Z,102183.50
2022-08-09T18:06:56.021Z,102188.34
2022-08-09T18:09:22.314Z,102187.31
2022-08-09T18:12:10.124Z,102203.22
2022-08-09T18:14:34.783Z,102193.75
2022-08-09T18:17:02.282Z,102197.69
2022-08-09T18:21:00.059Z,102202.16
2022-08-09T18:22:17.188Z,102206.94
2022-08-09T18:24:43.654Z,102205.72
2022-08-09T18:27:13.671Z,102211.75
2022-08-09T18:30:41.573Z,102219.00
2022-08-09T18:32:31.598Z,102220.16
2022-08-09T18:34:58.150Z,102217.03
2022-08-09T18:37:48.940Z,102218.38
2022-08-09T18:40:11.855Z,102215.03
2022-08-09T18:42:38.777Z,102223.59
2022-08-09T18:45:10.102Z,102223.16
2022-08-09T18:47:48.026Z,102227.03
2022-08-09T18:50:14.846Z,102226.28
2022-08-09T18:52:41.926Z,102232.63
2022-08-09T18:55:13.552Z,102232.41
2022-08-09T18:57:43.466Z,102237.16
2022-08-09T19:00:11.036Z,102236.22
2022-08-09T19:02:37.521Z,102233.06
2022-08-09T19:05:19.540Z,102233.06
2022-08-09T19:07:59.233Z,102246.31
2022-08-09T19:10:37.598Z,102246.47
2022-08-09T19:13:19.841Z,102250.94
2022-08-09T19:15:49.243Z,102243.41
2022-08-09T19:18:17.242Z,102248.91
2022-08-09T19:20:58.902Z,102251.38
2022-08-09T19:24:32.637Z,102263.81
2022-08-09T19:26:13.253Z,102260.03
2022-08-09T19:28:42.551Z,102260.41
2022-08-09T19:31:14.938Z,102257.00
2022-08-09T19:33:42.933Z,102258.63
2022-08-09T19:36:11.791Z,102260.13
2022-08-09T19:38:39.890Z,102256.25
2022-08-09T19:41:06.219Z,102259.41
2022-08-09T19:44:00.772Z,102268.16
2022-08-09T19:46:35.106Z,102260.78
2022-08-09T19:50:07.318Z,102272.56
2022-08-09T19:51:55.813Z,102275.19
2022-08-09T19:54:22.561Z,102275.78
2022-08-09T19:56:51.277Z,102271.75
2022-08-09T19:59:39.746Z,102277.84
2022-08-09T20:02:29.328Z,102274.69
2022-08-09T20:04:54.873Z,102274.13
2022-08-09T20:07:22.595Z,102282.22
2022-08-09T20:09:48.996Z,102281.78
2022-08-09T20:12:27.429Z,102285.13
2022-08-09T20:15:01.541Z,102285.84
2022-08-09T20:17:41.657Z,102283.66
2022-08-09T20:20:15.104Z,102293.25
2022-08-09T20:22:44.557Z,102283.69
2022-08-09T20:25:12.579Z,102286.00
2022-08-09T20:27:39.073Z,102285.56
2022-08-09T20:30:06.617Z,102292.38
2022-08-09T20:32:33.610Z,102301.16
2022-08-09T20:35:01.781Z,102300.75
2022-08-09T20:38:19.578Z,102294.81
2022-08-09T20:40:19.037Z,102299.88
2022-08-09T20:43:00.442Z,102291.19
2022-08-09T20:45:57.827Z,102293.63
2022-08-09T20:48:25.432Z,102287.69
2022-08-09T20:50:57.897Z,102293.47
2022-08-09T20:53:37.509Z,102294.63
2022-08-09T20:56:04.750Z,102288.53
2022-08-09T20:58:32.559Z,102298.06
2022-08-09T21:01:13.632Z,102299.44
2022-08-09T21:05:48.528Z,102302.75
2022-08-09T21:06:31.803Z,102302.31
2022-08-09T21:08:58.053Z,102298.25
2022-08-09T21:14:11.187Z,102293.59
2022-08-09T21:16:38.017Z,102295.91
2022-08-09T21:20:18.639Z,102310.28
2022-08-09T21:21:56.532Z,102304.22
2022-08-09T21:24:28.417Z,102309.09
2022-08-09T21:26:55.338Z,102310.38
2022-08-09T21:29:22.635Z,102311.78
2022-08-09T21:31:49.843Z,102312.06
2022-08-09T21:34:28.759Z,102309.72
2022-08-09T21:36:56.521Z,102314.72
2022-08-09T21:39:41.432Z,102316.88
2022-08-09T21:42:10.194Z,102314.84
2022-08-09T21:44:37.203Z,102315.81
2022-08-09T21:47:04.214Z,102312.59
2022-08-09T21:49:40.054Z,102310.13
2022-08-09T21:52:14.743Z,102311.38
2022-08-09T21:54:46.144Z,102313.53
2022-08-09T21:57:37.847Z,102311.19
2022-08-09T21:59:58.898Z,102321.13
2022-08-09T22:02:35.970Z,102317.66
2022-08-09T22:05:16.380Z,102316.31
2022-08-09T22:07:52.146Z,102307.75
2022-08-09T22:10:23.365Z,102319.13
2022-08-09T22:12:50.342Z,102316.78
2022-08-09T22:15:16.957Z,102316.16
2022-08-09T22:17:46.524Z,102318.31
2022-08-09T22:20:21.509Z,102318.31
2022-08-09T22:22:48.615Z,102315.06
2022-08-09T22:26:08.562Z,102323.41
2022-08-09T22:28:01.197Z,102318.47
2022-08-09T22:30:33.614Z,102321.59
2022-08-09T22:32:59.922Z,102324.72
2022-08-09T22:36:01.272Z,102314.91
2022-08-09T22:38:14.720Z,102316.16
2022-08-09T22:40:49.244Z,102314.53
2022-08-09T22:44:02.606Z,102318.41
2022-08-09T22:48:18.481Z,102310.84
2022-08-09T22:49:01.760Z,102318.56
2022-08-09T22:51:38.323Z,102326.03
2022-08-09T22:54:04.803Z,102317.19
2022-08-09T22:56:34.703Z,102320.19
2022-08-09T22:59:00.980Z,102322.28
2022-08-09T23:01:32.479Z,102318.06
2022-08-09T23:04:03.331Z,102322.78
2022-08-09T23:06:35.118Z,102320.16
2022-08-09T23:09:02.163Z,102328.63
2022-08-09T23:11:28.423Z,102335.22
2022-08-09T23:13:54.674Z,102331.75
2022-08-09T23:16:20.986Z,102330.13
2022-08-09T23:18:47.241Z,102328.63
2022-08-09T23:21:13.546Z,102331.75
2022-08-09T23:23:40.127Z,102326.66
2022-08-09T23:26:06.357Z,102327.03
2022-08-09T23:28:32.585Z,102330.91
2022-08-09T23:30:58.874Z,102326.78
2022-08-09T23:33:25.105Z,102326.28
2022-08-09T23:36:04.456Z,102332.84
2022-08-09T23:38:33.470Z,102324.66
2022-08-09T23:40:59.769Z,102325.03
2022-08-09T23:43:26.027Z,102325.28
2022-08-09T23:45:52.274Z,102327.50
2022-08-09T23:48:18.501Z,102327.75
2022-08-09T23:50:44.814Z,102328.00
2022-08-09T23:53:11.056Z,102321.78
2022-08-09T23:55:38.684Z,102330.22
2022-08-09T23:58:10.368Z,102327.47
